sensor_id;sensor_type;location;lat;lon;timestamp;P1;durP1;ratioP1;P2;durP2;ratioP2
18304;SDS011;9278;52.156;21.048;2023-05-17T00:01:49;22.08;;;13.75;;
18304;SDS011;9278;52.156;21.048;2023-05-17T00:04:17;22.17;;;13.15;;
18304;SDS011;9278;52.156;21.048;2023-05-17T00:06:45;23.17;;;13.02;;
18304;SDS011;9278;52.156;21.048;2023-05-17T00:09:14;20.80;;;13.15;;
18304;SDS011;9278;52.156;21.048;2023-05-17T00:11:42;21.00;;;13.45;;
18304;SDS011;9278;52.156;21.048;2023-05-17T00:14:10;22.83;;;13.82;;
18304;SDS011;9278;52.156;21.048;2023-05-17T00:16:39;19.83;;;14.02;;
18304;SDS011;9278;52.156;21.048;2023-05-17T00:19:09;20.15;;;14.15;;
18304;SDS011;9278;52.156;21.048;2023-05-17T00:21:37;19.15;;;13.95;;
18304;SDS011;9278;52.156;21.048;2023-05-17T00:24:05;21.20;;;13.77;;
18304;SDS011;9278;52.156;21.048;2023-05-17T00:26:34;22.02;;;14.27;;
18304;SDS011;9278;52.156;21.048;2023-05-17T00:29:03;23.30;;;14.55;;
18304;SDS011;9278;52.156;21.048;2023-05-17T00:31:31;22.15;;;14.75;;
18304;SDS011;9278;52.156;21.048;2023-05-17T00:33:59;20.90;;;14.05;;
18304;SDS011;9278;52.156;21.048;2023-05-17T00:36:29;21.35;;;13.90;;
18304;SDS011;9278;52.156;21.048;2023-05-17T00:38:57;21.25;;;12.98;;
18304;SDS011;9278;52.156;21.048;2023-05-17T00:41:25;20.50;;;13.55;;
18304;SDS011;9278;52.156;21.048;2023-05-17T00:43:54;19.92;;;12.40;;
18304;SDS011;9278;52.156;21.048;2023-05-17T00:46:22;18.15;;;13.23;;
18304;SDS011;9278;52.156;21.048;2023-05-17T00:48:50;19.77;;;12.68;;
18304;SDS011;9278;52.156;21.048;2023-05-17T00:51:19;20.73;;;12.75;;
18304;SDS011;9278;52.156;21.048;2023-05-17T00:53:49;19.65;;;13.73;;
18304;SDS011;9278;52.156;21.048;2023-05-17T00:56:17;18.30;;;13.50;;
18304;SDS011;9278;52.156;21.048;2023-05-17T00:58:46;18.13;;;13.23;;
18304;SDS011;9278;52.156;21.048;2023-05-17T01:01:15;16.85;;;13.18;;
18304;SDS011;9278;52.156;21.048;2023-05-17T01:03:43;20.40;;;14.00;;
18304;SDS011;9278;52.156;21.048;2023-05-17T01:06:12;17.30;;;13.00;;
18304;SDS011;9278;52.156;21.048;2023-05-17T01:08:41;19.73;;;13.73;;
18304;SDS011;9278;52.156;21.048;2023-05-17T01:11:16;23.98;;;15.75;;
18304;SDS011;9278;52.156;21.048;2023-05-17T01:13:54;21.40;;;15.40;;
18304;SDS011;9278;52.156;21.048;2023-05-17T01:16:29;21.02;;;15.20;;
18304;SDS011;9278;52.156;21.048;2023-05-17T01:19:05;24.00;;;16.98;;
18304;SDS011;9278;52.156;21.048;2023-05-17T01:21:42;23.63;;;17.05;;
18304;SDS011;9278;52.156;21.048;2023-05-17T01:24:24;27.90;;;17.98;;
18304;SDS011;9278;52.156;21.048;2023-05-17T01:26:56;26.50;;;18.95;;
18304;SDS011;9278;52.156;21.048;2023-05-17T01:29:27;27.05;;;18.25;;
18304;SDS011;9278;52.156;21.048;2023-05-17T01:31:56;27.63;;;18.65;;
18304;SDS011;9278;52.156;21.048;2023-05-17T01:34:26;28.83;;;18.52;;
18304;SDS011;9278;52.156;21.048;2023-05-17T01:36:55;28.20;;;19.63;;
18304;SDS011;9278;52.156;21.048;2023-05-17T01:39:24;28.00;;;18.85;;
18304;SDS011;9278;52.156;21.048;2023-05-17T01:41:58;26.08;;;19.05;;
18304;SDS011;9278;52.156;21.048;2023-05-17T01:44:39;30.20;;;19.10;;
18304;SDS011;9278;52.156;21.048;2023-05-17T01:47:12;29.65;;;20.45;;
18304;SDS011;9278;52.156;21.048;2023-05-17T01:49:47;27.83;;;19.77;;
18304;SDS011;9278;52.156;21.048;2023-05-17T01:52:23;29.88;;;20.52;;
18304;SDS011;9278;52.156;21.048;2023-05-17T01:55:00;32.83;;;20.70;;
18304;SDS011;9278;52.156;21.048;2023-05-17T01:57:35;32.25;;;22.05;;
18304;SDS011;9278;52.156;21.048;2023-05-17T02:00:05;29.63;;;19.58;;
18304;SDS011;9278;52.156;21.048;2023-05-17T02:02:41;31.25;;;20.33;;
18304;SDS011;9278;52.156;21.048;2023-05-17T02:05:11;31.60;;;19.42;;
18304;SDS011;9278;52.156;21.048;2023-05-17T02:07:40;27.13;;;19.58;;
18304;SDS011;9278;52.156;21.048;2023-05-17T02:10:08;28.45;;;19.17;;
18304;SDS011;9278;52.156;21.048;2023-05-17T02:12:42;28.10;;;19.92;;
18304;SDS011;9278;52.156;21.048;2023-05-17T02:15:10;29.02;;;19.75;;
18304;SDS011;9278;52.156;21.048;2023-05-17T02:17:39;28.95;;;18.80;;
18304;SDS011;9278;52.156;21.048;2023-05-17T02:20:08;29.92;;;19.30;;
18304;SDS011;9278;52.156;21.048;2023-05-17T02:22:37;30.80;;;20.85;;
18304;SDS011;9278;52.156;21.048;2023-05-17T02:25:06;26.80;;;18.70;;
18304;SDS011;9278;52.156;21.048;2023-05-17T02:27:34;27.60;;;18.90;;
18304;SDS011;9278;52.156;21.048;2023-05-17T02:30:05;29.05;;;19.70;;
18304;SDS011;9278;52.156;21.048;2023-05-17T02:32:34;30.65;;;20.67;;
18304;SDS011;9278;52.156;21.048;2023-05-17T02:35:02;30.38;;;20.95;;
18304;SDS011;9278;52.156;21.048;2023-05-17T02:37:31;32.45;;;22.58;;
18304;SDS011;9278;52.156;21.048;2023-05-17T02:39:59;33.72;;;22.00;;
18304;SDS011;9278;52.156;21.048;2023-05-17T02:42:28;31.65;;;21.77;;
18304;SDS011;9278;52.156;21.048;2023-05-17T02:44:56;35.50;;;22.63;;
18304;SDS011;9278;52.156;21.048;2023-05-17T02:47:26;34.00;;;22.60;;
18304;SDS011;9278;52.156;21.048;2023-05-17T02:49:54;35.63;;;23.73;;
18304;SDS011;9278;52.156;21.048;2023-05-17T02:52:23;37.08;;;24.08;;
18304;SDS011;9278;52.156;21.048;2023-05-17T02:54:51;34.58;;;23.02;;
18304;SDS011;9278;52.156;21.048;2023-05-17T02:57:20;35.78;;;24.65;;
18304;SDS011;9278;52.156;21.048;2023-05-17T02:59:49;34.83;;;23.77;;
18304;SDS011;9278;52.156;21.048;2023-05-17T03:02:17;38.88;;;24.23;;
18304;SDS011;9278;52.156;21.048;2023-05-17T03:04:47;35.47;;;24.40;;
18304;SDS011;9278;52.156;21.048;2023-05-17T03:07:16;39.30;;;24.27;;
18304;SDS011;9278;52.156;21.048;2023-05-17T03:09:44;33.15;;;23.50;;
18304;SDS011;9278;52.156;21.048;2023-05-17T03:12:12;33.05;;;23.20;;
18304;SDS011;9278;52.156;21.048;2023-05-17T03:14:41;32.50;;;21.50;;
18304;SDS011;9278;52.156;21.048;2023-05-17T03:17:10;36.90;;;23.55;;
18304;SDS011;9278;52.156;21.048;2023-05-17T03:19:39;35.70;;;24.10;;
18304;SDS011;9278;52.156;21.048;2023-05-17T03:22:09;37.03;;;25.35;;
18304;SDS011;9278;52.156;21.048;2023-05-17T03:24:38;34.20;;;23.75;;
18304;SDS011;9278;52.156;21.048;2023-05-17T03:27:06;36.05;;;23.90;;
18304;SDS011;9278;52.156;21.048;2023-05-17T03:29:35;33.75;;;23.92;;
18304;SDS011;9278;52.156;21.048;2023-05-17T03:32:04;35.67;;;24.08;;
18304;SDS011;9278;52.156;21.048;2023-05-17T03:34:33;41.80;;;25.15;;
18304;SDS011;9278;52.156;21.048;2023-05-17T03:37:01;36.63;;;23.15;;
18304;SDS011;9278;52.156;21.048;2023-05-17T03:39:31;32.38;;;21.45;;
18304;SDS011;9278;52.156;21.048;2023-05-17T03:42:00;28.13;;;19.25;;
18304;SDS011;9278;52.156;21.048;2023-05-17T03:44:31;29.27;;;20.02;;
18304;SDS011;9278;52.156;21.048;2023-05-17T03:46:59;26.88;;;20.70;;
18304;SDS011;9278;52.156;21.048;2023-05-17T03:49:27;29.00;;;20.10;;
18304;SDS011;9278;52.156;21.048;2023-05-17T03:51:56;26.48;;;19.05;;
18304;SDS011;9278;52.156;21.048;2023-05-17T03:54:25;27.95;;;19.00;;
18304;SDS011;9278;52.156;21.048;2023-05-17T03:56:55;26.00;;;18.40;;
18304;SDS011;9278;52.156;21.048;2023-05-17T03:59:23;25.42;;;18.33;;
18304;SDS011;9278;52.156;21.048;2023-05-17T04:01:51;26.13;;;18.75;;
18304;SDS011;9278;52.156;21.048;2023-05-17T04:04:20;28.63;;;20.15;;
18304;SDS011;9278;52.156;21.048;2023-05-17T04:06:49;26.50;;;19.55;;
18304;SDS011;9278;52.156;21.048;2023-05-17T04:09:17;25.48;;;18.13;;
18304;SDS011;9278;52.156;21.048;2023-05-17T04:11:45;24.05;;;18.13;;
18304;SDS011;9278;52.156;21.048;2023-05-17T04:14:16;26.17;;;17.50;;
18304;SDS011;9278;52.156;21.048;2023-05-17T04:16:45;26.48;;;18.70;;
18304;SDS011;9278;52.156;21.048;2023-05-17T04:19:13;25.60;;;17.08;;
18304;SDS011;9278;52.156;21.048;2023-05-17T04:21:43;27.85;;;18.73;;
18304;SDS011;9278;52.156;21.048;2023-05-17T04:24:11;26.17;;;18.67;;
18304;SDS011;9278;52.156;21.048;2023-05-17T04:26:40;28.25;;;18.60;;
18304;SDS011;9278;52.156;21.048;2023-05-17T04:29:10;24.98;;;18.42;;
18304;SDS011;9278;52.156;21.048;2023-05-17T04:31:40;25.52;;;17.73;;
18304;SDS011;9278;52.156;21.048;2023-05-17T04:34:08;25.98;;;17.25;;
18304;SDS011;9278;52.156;21.048;2023-05-17T04:36:37;22.48;;;16.85;;
18304;SDS011;9278;52.156;21.048;2023-05-17T04:39:06;23.42;;;17.25;;
18304;SDS011;9278;52.156;21.048;2023-05-17T04:41:37;19.83;;;15.48;;
18304;SDS011;9278;52.156;21.048;2023-05-17T04:44:09;21.25;;;16.05;;
18304;SDS011;9278;52.156;21.048;2023-05-17T04:46:37;20.45;;;15.07;;
18304;SDS011;9278;52.156;21.048;2023-05-17T04:49:09;24.42;;;17.80;;
18304;SDS011;9278;52.156;21.048;2023-05-17T04:51:37;22.55;;;16.92;;
18304;SDS011;9278;52.156;21.048;2023-05-17T04:54:06;22.38;;;16.02;;
18304;SDS011;9278;52.156;21.048;2023-05-17T04:56:35;22.15;;;15.20;;
18304;SDS011;9278;52.156;21.048;2023-05-17T04:59:08;21.77;;;16.05;;
18304;SDS011;9278;52.156;21.048;2023-05-17T05:01:38;20.90;;;15.73;;
18304;SDS011;9278;52.156;21.048;2023-05-17T05:04:06;23.65;;;17.92;;
18304;SDS011;9278;52.156;21.048;2023-05-17T05:06:41;25.05;;;18.00;;
18304;SDS011;9278;52.156;21.048;2023-05-17T05:09:09;24.13;;;17.38;;
18304;SDS011;9278;52.156;21.048;2023-05-17T05:11:38;23.05;;;16.55;;
18304;SDS011;9278;52.156;21.048;2023-05-17T05:14:07;21.17;;;16.33;;
18304;SDS011;9278;52.156;21.048;2023-05-17T05:16:36;26.08;;;17.70;;
18304;SDS011;9278;52.156;21.048;2023-05-17T05:19:04;24.38;;;16.20;;
18304;SDS011;9278;52.156;21.048;2023-05-17T05:21:35;20.00;;;15.15;;
18304;SDS011;9278;52.156;21.048;2023-05-17T05:24:06;24.23;;;16.35;;
18304;SDS011;9278;52.156;21.048;2023-05-17T05:26:35;20.35;;;15.20;;
18304;SDS011;9278;52.156;21.048;2023-05-17T05:29:04;19.08;;;14.77;;
18304;SDS011;9278;52.156;21.048;2023-05-17T05:31:33;18.20;;;13.95;;
18304;SDS011;9278;52.156;21.048;2023-05-17T05:34:04;18.48;;;14.38;;
18304;SDS011;9278;52.156;21.048;2023-05-17T05:36:32;18.27;;;13.20;;
18304;SDS011;9278;52.156;21.048;2023-05-17T05:39:01;20.00;;;13.75;;
18304;SDS011;9278;52.156;21.048;2023-05-17T05:41:32;16.48;;;13.75;;
18304;SDS011;9278;52.156;21.048;2023-05-17T05:44:04;19.30;;;12.80;;
18304;SDS011;9278;52.156;21.048;2023-05-17T05:46:33;15.75;;;12.90;;
18304;SDS011;9278;52.156;21.048;2023-05-17T05:49:03;14.55;;;11.95;;
18304;SDS011;9278;52.156;21.048;2023-05-17T05:51:32;13.18;;;10.45;;
18304;SDS011;9278;52.156;21.048;2023-05-17T05:54:00;13.27;;;11.15;;
18304;SDS011;9278;52.156;21.048;2023-05-17T05:56:29;14.38;;;11.48;;
18304;SDS011;9278;52.156;21.048;2023-05-17T05:58:59;14.48;;;11.00;;
18304;SDS011;9278;52.156;21.048;2023-05-17T06:01:28;13.00;;;10.45;;
18304;SDS011;9278;52.156;21.048;2023-05-17T06:03:56;12.68;;;10.65;;
18304;SDS011;9278;52.156;21.048;2023-05-17T06:06:25;12.20;;;10.25;;
18304;SDS011;9278;52.156;21.048;2023-05-17T06:08:54;13.93;;;11.68;;
18304;SDS011;9278;52.156;21.048;2023-05-17T06:11:25;13.18;;;11.07;;
18304;SDS011;9278;52.156;21.048;2023-05-17T06:13:53;10.55;;;9.23;;
18304;SDS011;9278;52.156;21.048;2023-05-17T06:16:23;16.02;;;9.88;;
18304;SDS011;9278;52.156;21.048;2023-05-17T06:18:51;11.40;;;9.77;;
18304;SDS011;9278;52.156;21.048;2023-05-17T06:21:20;13.73;;;10.23;;
18304;SDS011;9278;52.156;21.048;2023-05-17T06:23:48;11.05;;;8.80;;
18304;SDS011;9278;52.156;21.048;2023-05-17T06:26:16;11.90;;;8.95;;
18304;SDS011;9278;52.156;21.048;2023-05-17T06:28:45;12.00;;;9.38;;
18304;SDS011;9278;52.156;21.048;2023-05-17T06:31:14;12.20;;;9.18;;
18304;SDS011;9278;52.156;21.048;2023-05-17T06:33:46;10.65;;;9.27;;
18304;SDS011;9278;52.156;21.048;2023-05-17T06:36:14;11.93;;;9.55;;
18304;SDS011;9278;52.156;21.048;2023-05-17T06:38:43;11.07;;;9.55;;
18304;SDS011;9278;52.156;21.048;2023-05-17T06:41:11;10.02;;;9.00;;
18304;SDS011;9278;52.156;21.048;2023-05-17T06:43:40;12.35;;;8.82;;
18304;SDS011;9278;52.156;21.048;2023-05-17T06:46:08;11.57;;;10.20;;
18304;SDS011;9278;52.156;21.048;2023-05-17T06:48:37;11.95;;;10.27;;
18304;SDS011;9278;52.156;21.048;2023-05-17T06:51:07;11.15;;;9.80;;
18304;SDS011;9278;52.156;21.048;2023-05-17T06:53:35;13.10;;;10.32;;
18304;SDS011;9278;52.156;21.048;2023-05-17T06:56:04;11.13;;;9.20;;
18304;SDS011;9278;52.156;21.048;2023-05-17T06:58:34;11.32;;;9.85;;
18304;SDS011;9278;52.156;21.048;2023-05-17T07:01:02;13.27;;;10.00;;
18304;SDS011;9278;52.156;21.048;2023-05-17T07:03:31;15.45;;;10.88;;
18304;SDS011;9278;52.156;21.048;2023-05-17T07:05:59;16.40;;;11.15;;
18304;SDS011;9278;52.156;21.048;2023-05-17T07:08:30;16.50;;;11.10;;
18304;SDS011;9278;52.156;21.048;2023-05-17T07:10:58;15.38;;;11.10;;
18304;SDS011;9278;52.156;21.048;2023-05-17T07:13:26;13.70;;;10.70;;
18304;SDS011;9278;52.156;21.048;2023-05-17T07:15:55;13.38;;;10.32;;
18304;SDS011;9278;52.156;21.048;2023-05-17T07:18:23;11.55;;;9.95;;
18304;SDS011;9278;52.156;21.048;2023-05-17T07:20:52;10.18;;;9.07;;
18304;SDS011;9278;52.156;21.048;2023-05-17T07:23:20;10.90;;;9.20;;
18304;SDS011;9278;52.156;21.048;2023-05-17T07:25:50;15.32;;;9.10;;
18304;SDS011;9278;52.156;21.048;2023-05-17T07:28:18;11.23;;;8.80;;
18304;SDS011;9278;52.156;21.048;2023-05-17T07:30:46;13.73;;;9.75;;
18304;SDS011;9278;52.156;21.048;2023-05-17T07:33:14;10.25;;;8.85;;
18304;SDS011;9278;52.156;21.048;2023-05-17T07:35:46;13.60;;;9.63;;
18304;SDS011;9278;52.156;21.048;2023-05-17T07:38:15;11.75;;;9.73;;
18304;SDS011;9278;52.156;21.048;2023-05-17T07:40:43;13.02;;;10.18;;
18304;SDS011;9278;52.156;21.048;2023-05-17T07:43:13;11.50;;;9.52;;
18304;SDS011;9278;52.156;21.048;2023-05-17T07:45:42;12.70;;;10.07;;
18304;SDS011;9278;52.156;21.048;2023-05-17T07:48:10;12.98;;;9.00;;
18304;SDS011;9278;52.156;21.048;2023-05-17T07:50:39;10.65;;;9.35;;
18304;SDS011;9278;52.156;21.048;2023-05-17T07:53:09;12.65;;;9.40;;
18304;SDS011;9278;52.156;21.048;2023-05-17T07:55:37;12.75;;;9.30;;
18304;SDS011;9278;52.156;21.048;2023-05-17T07:58:08;10.85;;;8.80;;
18304;SDS011;9278;52.156;21.048;2023-05-17T08:00:38;14.30;;;8.75;;
18304;SDS011;9278;52.156;21.048;2023-05-17T08:03:08;10.80;;;8.88;;
18304;SDS011;9278;52.156;21.048;2023-05-17T08:05:42;9.77;;;8.05;;
18304;SDS011;9278;52.156;21.048;2023-05-17T08:08:10;10.98;;;9.00;;
18304;SDS011;9278;52.156;21.048;2023-05-17T08:10:39;11.90;;;8.10;;
18304;SDS011;9278;52.156;21.048;2023-05-17T08:13:08;13.20;;;9.18;;
18304;SDS011;9278;52.156;21.048;2023-05-17T08:15:38;11.73;;;8.93;;
18304;SDS011;9278;52.156;21.048;2023-05-17T08:18:06;11.48;;;9.43;;
18304;SDS011;9278;52.156;21.048;2023-05-17T08:20:35;11.93;;;9.30;;
18304;SDS011;9278;52.156;21.048;2023-05-17T08:23:03;11.75;;;9.90;;
18304;SDS011;9278;52.156;21.048;2023-05-17T08:25:32;11.13;;;8.60;;
18304;SDS011;9278;52.156;21.048;2023-05-17T08:28:00;10.35;;;8.77;;
18304;SDS011;9278;52.156;21.048;2023-05-17T08:30:29;11.20;;;8.93;;
18304;SDS011;9278;52.156;21.048;2023-05-17T08:32:58;9.82;;;7.40;;
18304;SDS011;9278;52.156;21.048;2023-05-17T08:35:27;10.18;;;7.35;;
18304;SDS011;9278;52.156;21.048;2023-05-17T08:37:56;9.32;;;7.53;;
18304;SDS011;9278;52.156;21.048;2023-05-17T08:40:26;10.30;;;7.95;;
18304;SDS011;9278;52.156;21.048;2023-05-17T08:42:55;13.20;;;7.95;;
18304;SDS011;9278;52.156;21.048;2023-05-17T08:45:24;9.80;;;8.65;;
18304;SDS011;9278;52.156;21.048;2023-05-17T08:47:54;12.35;;;7.80;;
18304;SDS011;9278;52.156;21.048;2023-05-17T08:50:25;9.35;;;6.68;;
18304;SDS011;9278;52.156;21.048;2023-05-17T08:52:56;11.15;;;8.57;;
18304;SDS011;9278;52.156;21.048;2023-05-17T08:55:25;9.48;;;8.05;;
18304;SDS011;9278;52.156;21.048;2023-05-17T08:57:56;9.65;;;7.95;;
18304;SDS011;9278;52.156;21.048;2023-05-17T09:00:24;11.00;;;8.75;;
18304;SDS011;9278;52.156;21.048;2023-05-17T09:02:54;6.65;;;5.97;;
18304;SDS011;9278;52.156;21.048;2023-05-17T09:05:23;8.27;;;6.18;;
18304;SDS011;9278;52.156;21.048;2023-05-17T09:07:53;7.22;;;5.65;;
18304;SDS011;9278;52.156;21.048;2023-05-17T09:10:22;9.73;;;5.70;;
18304;SDS011;9278;52.156;21.048;2023-05-17T09:12:51;7.80;;;6.07;;
18304;SDS011;9278;52.156;21.048;2023-05-17T09:15:20;11.05;;;6.72;;
18304;SDS011;9278;52.156;21.048;2023-05-17T09:17:52;11.15;;;7.13;;
18304;SDS011;9278;52.156;21.048;2023-05-17T09:20:21;7.03;;;6.32;;
18304;SDS011;9278;52.156;21.048;2023-05-17T09:22:52;9.10;;;6.57;;
18304;SDS011;9278;52.156;21.048;2023-05-17T09:25:22;12.93;;;7.43;;
18304;SDS011;9278;52.156;21.048;2023-05-17T09:27:51;7.97;;;6.18;;
18304;SDS011;9278;52.156;21.048;2023-05-17T09:30:25;11.00;;;7.68;;
18304;SDS011;9278;52.156;21.048;2023-05-17T09:32:54;11.27;;;7.88;;
18304;SDS011;9278;52.156;21.048;2023-05-17T09:35:26;12.27;;;8.75;;
18304;SDS011;9278;52.156;21.048;2023-05-17T09:38:02;7.72;;;6.80;;
18304;SDS011;9278;52.156;21.048;2023-05-17T09:40:33;10.45;;;7.60;;
18304;SDS011;9278;52.156;21.048;2023-05-17T09:43:05;13.40;;;7.30;;
18304;SDS011;9278;52.156;21.048;2023-05-17T09:45:33;11.18;;;7.53;;
18304;SDS011;9278;52.156;21.048;2023-05-17T09:48:12;15.30;;;9.35;;
18304;SDS011;9278;52.156;21.048;2023-05-17T09:50:42;16.92;;;9.77;;
18304;SDS011;9278;52.156;21.048;2023-05-17T09:56:05;15.35;;;9.70;;
18304;SDS011;9278;52.156;21.048;2023-05-17T09:58:35;16.13;;;10.32;;
18304;SDS011;9278;52.156;21.048;2023-05-17T10:01:04;16.00;;;9.48;;
18304;SDS011;9278;52.156;21.048;2023-05-17T10:03:35;10.93;;;8.93;;
18304;SDS011;9278;52.156;21.048;2023-05-17T10:06:05;13.57;;;8.82;;
18304;SDS011;9278;52.156;21.048;2023-05-17T10:08:49;10.32;;;8.45;;
18304;SDS011;9278;52.156;21.048;2023-05-17T10:11:20;12.85;;;6.78;;
18304;SDS011;9278;52.156;21.048;2023-05-17T10:14:04;9.25;;;7.40;;
18304;SDS011;9278;52.156;21.048;2023-05-17T10:16:36;14.48;;;8.98;;
18304;SDS011;9278;52.156;21.048;2023-05-17T10:19:05;12.00;;;8.10;;
18304;SDS011;9278;52.156;21.048;2023-05-17T10:21:34;17.13;;;11.80;;
18304;SDS011;9278;52.156;21.048;2023-05-17T10:24:06;26.00;;;11.20;;
18304;SDS011;9278;52.156;21.048;2023-05-17T10:26:35;18.70;;;13.13;;
18304;SDS011;9278;52.156;21.048;2023-05-17T10:29:04;20.15;;;14.80;;
18304;SDS011;9278;52.156;21.048;2023-05-17T10:31:32;18.48;;;12.85;;
18304;SDS011;9278;52.156;21.048;2023-05-17T10:34:02;21.02;;;13.35;;
18304;SDS011;9278;52.156;21.048;2023-05-17T10:36:32;16.25;;;11.70;;
18304;SDS011;9278;52.156;21.048;2023-05-17T10:39:01;21.60;;;14.43;;
18304;SDS011;9278;52.156;21.048;2023-05-17T10:41:31;23.75;;;14.85;;
18304;SDS011;9278;52.156;21.048;2023-05-17T10:44:02;22.13;;;14.93;;
18304;SDS011;9278;52.156;21.048;2023-05-17T10:46:33;24.90;;;14.45;;
18304;SDS011;9278;52.156;21.048;2023-05-17T10:49:02;22.58;;;13.55;;
18304;SDS011;9278;52.156;21.048;2023-05-17T10:51:31;26.17;;;13.93;;
18304;SDS011;9278;52.156;21.048;2023-05-17T10:54:06;25.90;;;15.40;;
18304;SDS011;9278;52.156;21.048;2023-05-17T10:56:39;28.38;;;14.80;;
18304;SDS011;9278;52.156;21.048;2023-05-17T10:59:14;24.17;;;13.88;;
18304;SDS011;9278;52.156;21.048;2023-05-17T11:01:49;21.08;;;11.70;;
18304;SDS011;9278;52.156;21.048;2023-05-17T11:04:20;26.05;;;13.27;;
18304;SDS011;9278;52.156;21.048;2023-05-17T11:06:52;20.30;;;12.48;;
18304;SDS011;9278;52.156;21.048;2023-05-17T11:09:22;21.23;;;10.77;;
18304;SDS011;9278;52.156;21.048;2023-05-17T11:12:06;23.40;;;10.32;;
18304;SDS011;9278;52.156;21.048;2023-05-17T11:14:45;19.73;;;10.93;;
18304;SDS011;9278;52.156;21.048;2023-05-17T11:17:15;33.33;;;10.60;;
18304;SDS011;9278;52.156;21.048;2023-05-17T11:20:00;22.70;;;10.40;;
18304;SDS011;9278;52.156;21.048;2023-05-17T11:22:35;17.77;;;9.45;;
18304;SDS011;9278;52.156;21.048;2023-05-17T11:25:05;21.75;;;11.75;;
18304;SDS011;9278;52.156;21.048;2023-05-17T11:27:37;28.63;;;11.95;;
18304;SDS011;9278;52.156;21.048;2023-05-17T11:30:08;23.80;;;11.63;;
18304;SDS011;9278;52.156;21.048;2023-05-17T11:32:48;20.50;;;11.38;;
18304;SDS011;9278;52.156;21.048;2023-05-17T11:35:21;21.70;;;11.80;;
18304;SDS011;9278;52.156;21.048;2023-05-17T11:37:51;21.08;;;11.63;;
18304;SDS011;9278;52.156;21.048;2023-05-17T11:40:23;20.67;;;12.13;;
18304;SDS011;9278;52.156;21.048;2023-05-17T11:43:10;22.77;;;10.93;;
18304;SDS011;9278;52.156;21.048;2023-05-17T11:45:43;24.33;;;11.63;;
18304;SDS011;9278;52.156;21.048;2023-05-17T11:48:17;20.90;;;12.00;;
18304;SDS011;9278;52.156;21.048;2023-05-17T11:50:48;22.75;;;11.65;;
18304;SDS011;9278;52.156;21.048;2023-05-17T11:53:17;22.65;;;10.57;;
18304;SDS011;9278;52.156;21.048;2023-05-17T11:55:46;20.50;;;12.45;;
18304;SDS011;9278;52.156;21.048;2023-05-17T11:58:19;20.98;;;12.60;;
18304;SDS011;9278;52.156;21.048;2023-05-17T12:00:51;27.48;;;11.63;;
18304;SDS011;9278;52.156;21.048;2023-05-17T12:03:21;23.98;;;11.13;;
18304;SDS011;9278;52.156;21.048;2023-05-17T12:05:50;27.20;;;12.02;;
18304;SDS011;9278;52.156;21.048;2023-05-17T12:08:27;18.10;;;9.55;;
18304;SDS011;9278;52.156;21.048;2023-05-17T12:10:57;17.67;;;10.18;;
18304;SDS011;9278;52.156;21.048;2023-05-17T12:13:28;17.83;;;9.75;;
18304;SDS011;9278;52.156;21.048;2023-05-17T12:15:58;20.17;;;9.30;;
18304;SDS011;9278;52.156;21.048;2023-05-17T12:18:35;16.25;;;8.80;;
18304;SDS011;9278;52.156;21.048;2023-05-17T12:21:04;15.57;;;8.60;;
18304;SDS011;9278;52.156;21.048;2023-05-17T12:23:34;15.68;;;7.70;;
18304;SDS011;9278;52.156;21.048;2023-05-17T12:26:04;18.00;;;7.95;;
18304;SDS011;9278;52.156;21.048;2023-05-17T12:28:35;17.00;;;8.30;;
18304;SDS011;9278;52.156;21.048;2023-05-17T12:31:06;20.00;;;8.35;;
18304;SDS011;9278;52.156;21.048;2023-05-17T12:33:37;17.85;;;8.25;;
18304;SDS011;9278;52.156;21.048;2023-05-17T12:36:08;20.10;;;8.65;;
18304;SDS011;9278;52.156;21.048;2023-05-17T12:38:38;15.60;;;7.57;;
18304;SDS011;9278;52.156;21.048;2023-05-17T12:41:08;17.10;;;8.90;;
18304;SDS011;9278;52.156;21.048;2023-05-17T12:43:39;17.83;;;8.77;;
18304;SDS011;9278;52.156;21.048;2023-05-17T12:46:11;23.20;;;9.68;;
18304;SDS011;9278;52.156;21.048;2023-05-17T12:48:40;19.98;;;9.82;;
18304;SDS011;9278;52.156;21.048;2023-05-17T12:51:10;16.85;;;9.13;;
18304;SDS011;9278;52.156;21.048;2023-05-17T12:53:40;19.85;;;9.18;;
18304;SDS011;9278;52.156;21.048;2023-05-17T12:56:13;21.60;;;9.60;;
18304;SDS011;9278;52.156;21.048;2023-05-17T12:58:46;20.38;;;9.88;;
18304;SDS011;9278;52.156;21.048;2023-05-17T13:01:34;20.17;;;9.45;;
18304;SDS011;9278;52.156;21.048;2023-05-17T13:04:02;17.85;;;9.60;;
18304;SDS011;9278;52.156;21.048;2023-05-17T13:06:41;19.75;;;8.90;;
18304;SDS011;9278;52.156;21.048;2023-05-17T13:09:11;22.80;;;9.80;;
18304;SDS011;9278;52.156;21.048;2023-05-17T13:11:40;15.63;;;8.65;;
18304;SDS011;9278;52.156;21.048;2023-05-17T13:14:10;19.40;;;8.70;;
18304;SDS011;9278;52.156;21.048;2023-05-17T13:16:39;15.75;;;8.43;;
18304;SDS011;9278;52.156;21.048;2023-05-17T13:19:11;20.10;;;9.50;;
18304;SDS011;9278;52.156;21.048;2023-05-17T13:21:40;14.07;;;8.38;;
18304;SDS011;9278;52.156;21.048;2023-05-17T13:24:09;13.77;;;7.82;;
18304;SDS011;9278;52.156;21.048;2023-05-17T13:26:38;23.45;;;10.65;;
18304;SDS011;9278;52.156;21.048;2023-05-17T13:29:06;21.33;;;8.80;;
18304;SDS011;9278;52.156;21.048;2023-05-17T13:31:36;16.33;;;9.20;;
18304;SDS011;9278;52.156;21.048;2023-05-17T13:34:04;19.50;;;9.77;;
18304;SDS011;9278;52.156;21.048;2023-05-17T13:36:33;20.33;;;9.88;;
18304;SDS011;9278;52.156;21.048;2023-05-17T13:39:01;19.02;;;9.20;;
18304;SDS011;9278;52.156;21.048;2023-05-17T13:41:30;20.42;;;9.25;;
18304;SDS011;9278;52.156;21.048;2023-05-17T13:43:59;15.90;;;9.43;;
18304;SDS011;9278;52.156;21.048;2023-05-17T13:46:27;20.40;;;9.48;;
18304;SDS011;9278;52.156;21.048;2023-05-17T13:48:57;23.45;;;8.80;;
18304;SDS011;9278;52.156;21.048;2023-05-17T13:51:26;19.00;;;9.00;;
18304;SDS011;9278;52.156;21.048;2023-05-17T13:53:54;17.42;;;8.88;;
18304;SDS011;9278;52.156;21.048;2023-05-17T13:56:23;15.85;;;9.27;;
18304;SDS011;9278;52.156;21.048;2023-05-17T13:58:51;18.05;;;8.80;;
18304;SDS011;9278;52.156;21.048;2023-05-17T14:01:19;19.35;;;9.23;;
18304;SDS011;9278;52.156;21.048;2023-05-17T14:03:48;16.95;;;8.90;;
18304;SDS011;9278;52.156;21.048;2023-05-17T14:06:18;16.60;;;9.15;;
18304;SDS011;9278;52.156;21.048;2023-05-17T14:08:46;18.73;;;9.23;;
18304;SDS011;9278;52.156;21.048;2023-05-17T14:11:15;20.42;;;10.07;;
18304;SDS011;9278;52.156;21.048;2023-05-17T14:13:43;22.25;;;9.93;;
18304;SDS011;9278;52.156;21.048;2023-05-17T14:16:12;20.65;;;10.65;;
18304;SDS011;9278;52.156;21.048;2023-05-17T14:18:40;16.08;;;9.73;;
18304;SDS011;9278;52.156;21.048;2023-05-17T14:21:09;14.70;;;9.75;;
18304;SDS011;9278;52.156;21.048;2023-05-17T14:23:39;18.65;;;8.85;;
18304;SDS011;9278;52.156;21.048;2023-05-17T14:26:07;19.00;;;9.90;;
18304;SDS011;9278;52.156;21.048;2023-05-17T14:28:37;18.70;;;9.63;;
18304;SDS011;9278;52.156;21.048;2023-05-17T14:31:05;23.13;;;9.85;;
18304;SDS011;9278;52.156;21.048;2023-05-17T14:33:35;19.00;;;10.38;;
18304;SDS011;9278;52.156;21.048;2023-05-17T14:36:03;17.85;;;9.77;;
18304;SDS011;9278;52.156;21.048;2023-05-17T14:38:32;27.30;;;11.45;;
18304;SDS011;9278;52.156;21.048;2023-05-17T14:41:02;23.05;;;10.38;;
18304;SDS011;9278;52.156;21.048;2023-05-17T14:43:32;23.83;;;10.05;;
18304;SDS011;9278;52.156;21.048;2023-05-17T14:46:00;17.42;;;9.43;;
18304;SDS011;9278;52.156;21.048;2023-05-17T14:48:28;26.02;;;10.07;;